Nallen, West Virginia
Current Conditions -  °F | °C
As of 12:51 AM on Monday 26 Jan 2015 (Local Time) from KBKW Reporting Station
Overcast Overcast  
Wind Chill: 38°   Ceiling: 5000
Heat Index: 38°   Visibility: 10mi
Dew Point: 31°   Wind: 3mph
Humidity: 76%   Direction: 140°SE
Pressure: 29.63"   Gusts: NA
Location:  38.11°N, 80.88°W
Report Text: KBKW 260551Z AUTO 14003KT 10SM OVC050 03/M01 A2963 RMK AO2 SLP046 60000 T00331006 10050 20028 57022
Loading
Personal Weather Stations






























Interactive Weather Map New forecast layout! Learn more

10-Day Weather Forecast

Advertisements
Track Severe Weather on mobile